Hacienda Margarita, Puerto Rico
Current Conditions -  °F | °C
As of 6:53 PM on Friday 31 Oct 2014 (Local Time) from TJNR Reporting Station
Broken Clouds Broken Clouds  
Wind Chill: 79°   Ceiling: 6000
Heat Index: 83°   Visibility: 10mi
Dew Point: 76°   Wind: 0mph
Humidity: 90%   Direction: NA
Pressure: 29.91"   Gusts: NA
Location:  18.3744°N, 65.7168°W
Report Text: TJNR 312253Z AUTO 00000KT 10SM BKN060 26/24 A2991 RMK AO2 RAB2159E10 SLP129 P0001 T02610244 $
Loading
Personal Weather Stations






























Interactive Weather Map
Tropical Storm Tracking
New forecast layout! Learn more

10-Day Weather Forecast

Advertisements
Track Severe Weather on mobile